Time;durP1;ratioP1;P1;durP2;ratioP2;P2;SDS_P1;SDS_P2;PMS_P1;PMS_P2;Temp;Humidity;BMP_temperature;BMP_pressure;BME280_temperature;BME280_humidity;BME280_pressure;Samples;Min_cycle;Max_cycle;Signal;HPM_P1;HPM_P2
2024/04/05 00:00:18;;;;;;;;;;;;;;;20.11;53.32;100568.22;2060123;28;6919;-69
2024/04/05 00:01:19;;;;;;;;;;;;;;;20.11;53.18;100573.97;2051588;28;1971;-70
2024/04/05 00:02:19;;;;;;;;;;;;;;;20.11;53.44;100574.69;2049581;28;1909;-70
2024/04/05 00:03:19;;;;;;;;;;;;;;;20.11;53.44;100573.97;2062394;28;2044;-70
2024/04/05 00:04:20;;;;;;;;;;;;;;;20.10;53.39;100578.97;2056725;28;2533;-69
2024/04/05 00:05:20;;;;;;;;;;;;;;;20.12;53.23;100566.84;2050811;28;1861;-69
2024/04/05 00:06:21;;;;;;;;;;;;;;;20.11;53.30;100571.09;2060851;28;1602;-70
2024/04/05 00:07:21;;;;;;;;;;;;;;;20.10;53.35;100567.47;2059890;28;1949;-70
2024/04/05 00:08:24;;;;;;;;;;;;;;;20.11;53.35;100576.84;2053623;28;2366;-69
2024/04/05 00:09:26;;;;;;;;;;;;;;;20.10;53.29;100578.97;2061170;28;1622;-69
2024/04/05 00:10:26;;;;;;;;;;;;;;;20.09;53.40;100572.50;2060776;28;2385;-70
2024/04/05 00:11:26;;;;;;;;;;;;;;;20.08;53.21;100564.50;2064608;28;2384;-70
2024/04/05 00:12:27;;;;;;;;;;;;;;;20.10;53.36;100567.47;2061629;28;2657;-69
2024/04/05 00:13:27;;;;;;;;;;;;;;;20.08;53.33;100571.00;2052615;28;2595;-69
2024/04/05 00:14:27;;;;;;;;;;;;;;;20.08;53.34;100565.25;2052954;28;2470;-70
2024/04/05 00:15:28;;;;;;;;;;;;;;;20.09;53.32;100572.50;2050718;28;2117;-70
2024/04/05 00:16:28;;;;;;;;;;;;;;;20.08;53.38;100571.00;2069404;28;2138;-69
2024/04/05 00:17:29;;;;;;;;;;;;;;;20.08;53.32;100571.00;2065114;28;2087;-70
2024/04/05 00:18:34;;;;;;;;;;;;;;;20.08;53.35;100568.13;2050433;28;2450;-69
2024/04/05 00:19:34;;;;;;;;;;;;;;;20.09;53.14;100566.75;2052470;28;1865;-69
2024/04/05 00:20:34;;;;;;;;;;;;;;;20.08;53.23;100571.00;2059481;28;1978;-69
2024/04/05 00:21:37;;;;;;;;;;;;;;;20.08;53.24;100568.13;2057034;28;2569;-69
2024/04/05 00:22:37;;;;;;;;;;;;;;;20.08;53.13;100571.00;2056888;28;1928;-69
2024/04/05 00:23:37;;;;;;;;;;;;;;;20.08;53.19;100570.25;2061147;28;2213;-69
2024/04/05 00:24:38;;;;;;;;;;;;;;;20.08;53.10;100570.25;2055565;28;2859;-69
2024/04/05 00:25:38;;;;;;;;;;;;;;;20.07;53.17;100569.53;2055069;28;1889;-70
2024/04/05 00:26:39;;;;;;;;;;;;;;;20.08;53.16;100571.00;2061259;28;2405;-70
2024/04/05 00:27:39;;;;;;;;;;;;;;;20.07;53.16;100575.28;2058759;28;2635;-69
2024/04/05 00:28:40;;;;;;;;;;;;;;;20.07;53.31;100566.66;2048286;28;2553;-70
2024/04/05 00:29:40;;;;;;;;;;;;;;;20.06;53.36;100570.16;2064564;28;2138;-69
2024/04/05 00:30:40;;;;;;;;;;;;;;;20.06;53.33;100570.91;2065218;28;6257;-69
2024/04/05 00:31:41;;;;;;;;;;;;;;;20.08;53.41;100573.88;2059499;28;2585;-69
2024/04/05 00:32:41;;;;;;;;;;;;;;;20.09;53.25;100566.00;2056717;28;1926;-70
2024/04/05 00:33:42;;;;;;;;;;;;;;;20.07;53.35;100575.28;2058244;28;2248;-69
2024/04/05 00:34:42;;;;;;;;;;;;;;;20.07;53.37;100575.28;2056654;28;1875;-70
2024/04/05 00:35:52;;;;;;;;;;;;;;;20.07;53.23;100578.16;2065653;28;1843;-69
2024/04/05 00:36:53;;;;;;;;;;;;;;;20.07;53.31;100580.28;2062319;28;2238;-70
2024/04/05 00:37:53;;;;;;;;;;;;;;;20.07;53.27;100586.03;2059952;28;1610;-69
2024/04/05 00:38:54;;;;;;;;;;;;;;;20.06;53.39;100585.28;2057289;28;2473;-69
2024/04/05 00:39:55;;;;;;;;;;;;;;;20.06;53.13;100582.41;2060987;28;2515;-69
2024/04/05 00:40:55;;;;;;;;;;;;;;;20.07;53.46;100583.91;2059715;28;2088;-70
2024/04/05 00:41:55;;;;;;;;;;;;;;;20.06;53.39;100585.28;2050874;28;2363;-70
2024/04/05 00:42:56;;;;;;;;;;;;;;;20.06;53.34;100593.91;2052064;28;2942;-70
2024/04/05 00:43:56;;;;;;;;;;;;;;;20.05;53.37;100589.56;2070247;28;2105;-70
2024/04/05 00:44:57;;;;;;;;;;;;;;;20.05;53.24;100589.56;2064744;28;2590;-69
2024/04/05 00:45:57;;;;;;;;;;;;;;;20.05;53.25;100585.94;2051428;28;1671;-69
2024/04/05 00:46:58;;;;;;;;;;;;;;;20.04;53.16;100581.56;2059209;28;2095;-69
2024/04/05 00:47:58;;;;;;;;;;;;;;;20.04;53.35;100588.09;2075815;28;2061;-69
2024/04/05 00:48:59;;;;;;;;;;;;;;;20.05;53.33;100589.56;2066287;28;1882;-69
2024/04/05 00:50:04;;;;;;;;;;;;;;;20.05;53.28;100598.19;2051610;28;2073;-69
2024/04/05 00:51:06;;;;;;;;;;;;;;;20.03;53.16;100589.47;2051969;28;2162;-69
2024/04/05 00:52:06;;;;;;;;;;;;;;;20.03;53.27;100594.47;2064940;28;2310;-70
2024/04/05 00:53:10;;;;;;;;;;;;;;;20.03;53.38;100598.09;2067595;28;2206;-69
2024/04/05 00:54:10;;;;;;;;;;;;;;;20.02;53.37;100596.63;2050215;28;2156;-70
2024/04/05 00:55:10;;;;;;;;;;;;;;;20.04;53.39;100601.69;2054489;28;2529;-69
2024/04/05 00:56:11;;;;;;;;;;;;;;;20.03;53.26;100594.47;2051116;28;2105;-69
2024/04/05 00:57:12;;;;;;;;;;;;;;;20.03;53.14;100605.97;2056434;28;2402;-69
2024/04/05 00:58:13;;;;;;;;;;;;;;;20.02;53.28;100607.34;2058046;28;2751;-69
2024/04/05 00:59:13;;;;;;;;;;;;;;;20.03;53.23;100608.84;2055028;28;2150;-70
2024/04/05 01:00:15;;;;;;;;;;;;;;;20.03;53.35;100611.72;2060501;28;6389;-69
2024/04/05 01:01:16;;;;;;;;;;;;;;;20.02;53.20;100611.00;2063796;28;1801;-69
2024/04/05 01:02:16;;;;;;;;;;;;;;;20.02;53.28;100605.25;2060804;28;1955;-69
2024/04/05 01:03:17;;;;;;;;;;;;;;;20.03;53.39;100603.09;2060968;28;2256;-69
2024/04/05 01:04:18;;;;;;;;;;;;;;;20.00;53.37;100599.41;2056026;28;2624;-69
2024/04/05 01:05:19;;;;;;;;;;;;;;;20.01;53.13;100612.38;2058302;28;1722;-69
2024/04/05 01:06:38;;;;;;;;;;;;;;;20.01;53.22;100609.50;2055680;28;2152;-69
2024/04/05 01:07:38;;;;;;;;;;;;;;;20.00;53.36;100605.16;2056160;28;1911;-69
2024/04/05 01:08:39;;;;;;;;;;;;;;;20.00;53.27;100605.16;2055952;28;2035;-69
2024/04/05 01:09:39;;;;;;;;;;;;;;;20.01;53.21;100603.00;2064465;28;2550;-69
2024/04/05 01:10:40;;;;;;;;;;;;;;;20.01;53.23;100600.13;2066281;28;2157;-70
2024/04/05 01:11:41;;;;;;;;;;;;;;;20.01;53.26;100605.88;2061805;28;1931;-70
2024/04/05 01:12:41;;;;;;;;;;;;;;;20.00;53.34;100610.91;2061337;28;2332;-70
2024/04/05 01:13:42;;;;;;;;;;;;;;;20.00;53.24;100605.16;2059103;28;2149;-69
2024/04/05 01:14:42;;;;;;;;;;;;;;;20.00;53.33;100610.16;2054324;28;2487;-69
2024/04/05 01:15:42;;;;;;;;;;;;;;;19.99;53.14;100603.66;2066247;28;1870;-69
2024/04/05 01:16:43;;;;;;;;;;;;;;;20.00;53.34;100599.41;2064165;28;2019;-69
2024/04/05 01:17:43;;;;;;;;;;;;;;;20.00;53.39;100605.16;2051773;28;2453;-69
2024/04/05 01:18:44;;;;;;;;;;;;;;;20.00;53.13;100605.16;2055756;28;1918;-69
2024/04/05 01:19:45;;;;;;;;;;;;;;;19.99;53.29;100606.53;2051736;28;1865;-70
2024/04/05 01:20:47;;;;;;;;;;;;;;;19.99;53.31;100603.66;2050905;28;1965;-69
2024/04/05 01:21:50;;;;;;;;;;;;;;;19.99;53.12;100611.53;2057182;28;2226;-69
2024/04/05 01:22:53;;;;;;;;;;;;;;;19.99;53.36;100612.28;2057376;28;2143;-70
2024/04/05 01:23:54;;;;;;;;;;;;;;;19.99;53.35;100603.66;2051932;28;2058;-69
2024/04/05 01:24:55;;;;;;;;;;;;;;;19.99;53.30;100603.66;2050759;28;2517;-69
2024/04/05 01:25:57;;;;;;;;;;;;;;;20.00;53.40;100601.53;2054279;28;1707;-70
2024/04/05 01:26:57;;;;;;;;;;;;;;;19.99;53.36;100606.53;2057275;28;2098;-69
2024/04/05 01:27:59;;;;;;;;;;;;;;;20.00;53.27;100604.41;2054796;28;2518;-69
2024/04/05 01:28:59;;;;;;;;;;;;;;;19.99;53.25;100608.66;2050509;28;1718;-69
2024/04/05 01:29:59;;;;;;;;;;;;;;;19.98;53.25;100619.44;2050620;28;1917;-69
2024/04/05 01:31:00;;;;;;;;;;;;;;;19.99;53.30;100615.16;2046580;28;6302;-69
2024/04/05 01:32:00;;;;;;;;;;;;;;;19.98;53.31;100616.56;2067747;28;2346;-69
2024/04/05 01:33:01;;;;;;;;;;;;;;;19.98;53.31;100619.44;2064614;28;2058;-69
2024/04/05 01:34:01;;;;;;;;;;;;;;;19.98;53.40;100619.44;2052211;28;2413;-69
2024/04/05 01:35:02;;;;;;;;;;;;;;;19.99;53.20;100614.41;2059183;28;2548;-69
2024/04/05 01:36:02;;;;;;;;;;;;;;;19.97;53.18;100612.19;2056990;28;2029;-69
2024/04/05 01:37:03;;;;;;;;;;;;;;;19.97;53.34;100617.94;2059135;28;1895;-69
2024/04/05 01:38:03;;;;;;;;;;;;;;;19.98;53.31;100613.69;2048524;28;1874;-69
2024/04/05 01:39:04;;;;;;;;;;;;;;;19.97;53.16;100611.44;2058070;28;1848;-69
2024/04/05 01:40:04;;;;;;;;;;;;;;;19.97;53.13;100617.94;2058666;28;2174;-69
2024/04/05 01:41:04;;;;;;;;;;;;;;;19.97;53.18;100612.19;2051143;28;1678;-69
2024/04/05 01:42:05;;;;;;;;;;;;;;;19.97;53.16;100612.19;2056834;28;1920;-69
2024/04/05 01:43:05;;;;;;;;;;;;;;;19.97;53.09;100614.31;2056427;28;2544;-69
2024/04/05 01:44:06;;;;;;;;;;;;;;;19.96;53.08;100607.84;2057214;28;2083;-69
2024/04/05 01:45:06;;;;;;;;;;;;;;;19.97;53.25;100623.69;2052710;28;2339;-69
2024/04/05 01:46:06;;;;;;;;;;;;;;;19.96;53.39;100619.34;2054192;28;1642;-69
2024/04/05 01:47:07;;;;;;;;;;;;;;;19.96;53.25;100622.22;2052316;28;2112;-69
2024/04/05 01:48:08;;;;;;;;;;;;;;;19.96;53.18;100616.47;2059792;28;1881;-70
2024/04/05 01:49:08;;;;;;;;;;;;;;;19.96;53.32;100622.22;2058981;28;2104;-69
2024/04/05 01:50:08;;;;;;;;;;;;;;;19.96;53.29;100627.94;2053101;28;2189;-69
2024/04/05 01:51:09;;;;;;;;;;;;;;;19.95;53.33;100623.63;2048725;28;1882;-70
2024/04/05 01:52:09;;;;;;;;;;;;;;;19.96;53.29;100625.09;2061818;28;1721;-69
2024/04/05 01:53:10;;;;;;;;;;;;;;;19.96;53.21;100615.72;2059937;28;2106;-69
2024/04/05 01:54:10;;;;;;;;;;;;;;;19.95;53.26;100626.47;2051485;28;2025;-69
2024/04/05 01:55:10;;;;;;;;;;;;;;;19.95;53.17;100620.75;2059186;28;2171;-70
2024/04/05 01:56:11;;;;;;;;;;;;;;;19.94;53.18;100612.75;2059302;28;1879;-69
2024/04/05 01:57:11;;;;;;;;;;;;;;;19.95;53.40;100617.88;2051794;28;1619;-69
2024/04/05 01:58:12;;;;;;;;;;;;;;;19.93;53.37;100629.25;2059872;28;2369;-69
2024/04/05 01:59:12;;;;;;;;;;;;;;;19.94;53.17;100619.25;2057120;28;2865;-70
2024/04/05 02:00:12;;;;;;;;;;;;;;;19.95;53.37;100619.97;2050909;28;6403;-70
2024/04/05 02:01:13;;;;;;;;;;;;;;;19.94;53.12;100622.13;2057574;28;1602;-69
2024/04/05 02:02:13;;;;;;;;;;;;;;;19.94;53.39;100625.00;2058726;28;2147;-69
2024/04/05 02:03:14;;;;;;;;;;;;;;;19.95;53.10;100632.22;2053057;28;1807;-69
2024/04/05 02:04:14;;;;;;;;;;;;;;;19.95;53.14;100625.72;2055167;28;2111;-70
2024/04/05 02:05:15;;;;;;;;;;;;;;;19.95;53.12;100625.72;2059175;28;2521;-69
2024/04/05 02:06:15;;;;;;;;;;;;;;;19.94;53.37;100627.88;2049869;28;2098;-69
2024/04/05 02:07:15;;;;;;;;;;;;;;;19.94;53.36;100624.25;2065365;28;2446;-69
2024/04/05 02:08:16;;;;;;;;;;;;;;;19.94;53.31;100625.00;2066526;28;1799;-70
2024/04/05 02:09:16;;;;;;;;;;;;;;;19.94;53.16;100635.75;2056320;28;1657;-69
2024/04/05 02:10:16;;;;;;;;;;;;;;;19.94;53.34;100630.75;2058571;28;2151;-69
2024/04/05 02:11:17;;;;;;;;;;;;;;;19.94;53.31;100632.88;2050560;28;2639;-69
2024/04/05 02:12:18;;;;;;;;;;;;;;;19.94;53.02;100636.47;2058046;28;1734;-70
2024/04/05 02:13:18;;;;;;;;;;;;;;;19.94;53.29;100627.88;2060704;28;2151;-69
2024/04/05 02:14:19;;;;;;;;;;;;;;;19.94;53.31;100630.00;2058708;28;2468;-69
2024/04/05 02:15:19;;;;;;;;;;;;;;;19.94;53.37;100618.50;2052499;28;2557;-69
2024/04/05 02:16:20;;;;;;;;;;;;;;;19.93;53.37;100623.53;2061914;28;2559;-69
2024/04/05 02:17:20;;;;;;;;;;;;;;;19.92;53.36;100627.78;2056780;28;2323;-70
2024/04/05 02:18:20;;;;;;;;;;;;;;;19.93;53.03;100622.75;2053685;28;2328;-70
2024/04/05 02:19:21;;;;;;;;;;;;;;;19.92;53.26;100627.78;2064970;28;1701;-69
2024/04/05 02:20:22;;;;;;;;;;;;;;;19.93;53.24;100631.38;2069145;28;1989;-69
2024/04/05 02:21:23;;;;;;;;;;;;;;;19.91;53.39;100626.28;2060393;28;2186;-69
2024/04/05 02:22:23;;;;;;;;;;;;;;;19.93;53.07;100622.75;2058365;28;1609;-69
2024/04/05 02:23:24;;;;;;;;;;;;;;;19.92;53.27;100622.03;2055801;28;1618;-69
2024/04/05 02:24:24;;;;;;;;;;;;;;;19.92;53.22;100622.03;2055349;28;2084;-69
2024/04/05 02:25:25;;;;;;;;;;;;;;;19.91;53.25;100625.56;2055956;28;2053;-69
2024/04/05 02:26:26;;;;;;;;;;;;;;;19.92;53.24;100627.78;2056427;28;2131;-69
2024/04/05 02:27:26;;;;;;;;;;;;;;;19.93;53.19;100628.50;2057656;28;1665;-69
2024/04/05 02:28:26;;;;;;;;;;;;;;;19.91;53.28;100629.16;2056007;28;2576;-69
2024/04/05 02:29:27;;;;;;;;;;;;;;;19.92;53.28;100629.91;2053194;28;1698;-70
2024/04/05 02:30:28;;;;;;;;;;;;;;;19.91;53.28;100631.31;2047057;28;6331;-69
2024/04/05 02:31:28;;;;;;;;;;;;;;;19.91;53.33;100629.16;2051679;28;1650;-70
2024/04/05 02:32:28;;;;;;;;;;;;;;;19.90;53.38;100633.41;2052767;28;1885;-69
2024/04/05 02:33:29;;;;;;;;;;;;;;;19.91;53.33;100637.78;2054233;28;1805;-69
2024/04/05 02:34:29;;;;;;;;;;;;;;;19.90;53.11;100632.69;2055772;28;2062;-69
2024/04/05 02:35:29;;;;;;;;;;;;;;;19.91;53.07;100631.31;2059422;28;1653;-69
2024/04/05 02:36:30;;;;;;;;;;;;;;;19.92;53.21;100635.66;2048391;28;1667;-69
2024/04/05 02:37:30;;;;;;;;;;;;;;;19.92;52.99;100641.41;2056406;28;1701;-70
2024/04/05 02:38:31;;;;;;;;;;;;;;;19.91;53.32;100639.94;2058592;28;2387;-69
2024/04/05 02:39:31;;;;;;;;;;;;;;;19.92;53.03;100645.00;2055156;28;1818;-69
2024/04/05 02:40:32;;;;;;;;;;;;;;;19.92;53.19;100645.00;2059343;28;2548;-69
2024/04/05 02:41:32;;;;;;;;;;;;;;;19.92;53.03;100645.00;2055826;28;1668;-70
2024/04/05 02:42:32;;;;;;;;;;;;;;;19.94;52.98;100647.25;2049699;28;1671;-70
2024/04/05 02:43:33;;;;;;;;;;;;;;;19.94;52.92;100647.25;2059172;28;2512;-70
2024/04/05 02:44:33;;;;;;;;;;;;;;;19.95;52.88;100645.84;2058570;28;1965;-69
2024/04/05 02:45:34;;;;;;;;;;;;;;;19.96;52.96;100647.34;2052037;28;2105;-70
2024/04/05 02:46:34;;;;;;;;;;;;;;;19.96;52.89;100650.94;2059289;28;1622;-69
2024/04/05 02:47:34;;;;;;;;;;;;;;;19.96;53.12;100650.94;2062263;28;1662;-70
2024/04/05 02:48:35;;;;;;;;;;;;;;;19.97;52.82;100649.53;2062479;28;2399;-70
2024/04/05 02:49:35;;;;;;;;;;;;;;;19.98;52.84;100648.16;2061768;28;1899;-69
2024/04/05 02:50:36;;;;;;;;;;;;;;;19.99;52.71;100651.78;2057801;28;2258;-70
2024/04/05 02:51:36;;;;;;;;;;;;;;;19.99;53.01;100649.63;2050302;28;1659;-69
2024/04/05 02:52:36;;;;;;;;;;;;;;;20.00;52.73;100654.00;2055284;28;2334;-70
2024/04/05 02:53:37;;;;;;;;;;;;;;;20.01;52.92;100658.34;2050061;28;2198;-69
2024/04/05 02:54:37;;;;;;;;;;;;;;;20.01;53.01;100649.72;2059906;28;2512;-69
2024/04/05 02:55:38;;;;;;;;;;;;;;;20.01;52.94;100652.59;2057236;28;2037;-69
2024/04/05 02:56:38;;;;;;;;;;;;;;;20.02;52.74;100654.09;2052975;28;1695;-69
2024/04/05 02:57:38;;;;;;;;;;;;;;;20.03;52.62;100654.84;2059110;28;2103;-70
2024/04/05 02:58:39;;;;;;;;;;;;;;;20.03;52.60;100652.69;2060555;28;2362;-70
2024/04/05 02:59:39;;;;;;;;;;;;;;;20.04;52.79;100657.06;2057498;28;1690;-69
2024/04/05 03:00:40;;;;;;;;;;;;;;;20.03;52.82;100649.81;2068105;28;6274;-70
2024/04/05 03:01:41;;;;;;;;;;;;;;;20.04;52.71;100648.44;2069082;28;1597;-69
2024/04/05 03:02:41;;;;;;;;;;;;;;;20.04;52.60;100651.31;2053033;28;1681;-69
2024/04/05 03:03:42;;;;;;;;;;;;;;;20.04;52.87;100651.31;2055203;28;1696;-70
2024/04/05 03:04:42;;;;;;;;;;;;;;;20.05;52.90;100652.06;2053687;28;2319;-70
2024/04/05 03:05:42;;;;;;;;;;;;;;;20.04;52.59;100657.06;2055795;28;1916;-69
2024/04/05 03:06:43;;;;;;;;;;;;;;;20.04;52.90;100662.81;2056175;28;1697;-70
2024/04/05 03:07:43;;;;;;;;;;;;;;;20.04;52.74;100657.06;2050555;28;2080;-69
2024/04/05 03:08:44;;;;;;;;;;;;;;;20.04;52.66;100657.06;2052595;28;2198;-70
2024/04/05 03:09:44;;;;;;;;;;;;;;;20.03;52.91;100655.56;2048479;28;2322;-70
2024/04/05 03:10:45;;;;;;;;;;;;;;;20.05;52.67;100657.81;2053435;28;2823;-69
2024/04/05 03:11:45;;;;;;;;;;;;;;;20.03;52.93;100658.44;2066639;28;1830;-68
2024/04/05 03:12:45;;;;;;;;;;;;;;;20.03;52.85;100661.31;2065303;28;2137;-68
2024/04/05 03:13:46;;;;;;;;;;;;;;;20.03;53.00;100667.06;2056664;28;2548;-68
2024/04/05 03:14:46;;;;;;;;;;;;;;;20.04;52.85;100670.69;2060526;28;2210;-69
2024/04/05 03:15:47;;;;;;;;;;;;;;;20.03;52.68;100660.59;2058581;28;2089;-68
2024/04/05 03:16:47;;;;;;;;;;;;;;;20.04;52.97;100671.44;2049320;28;1924;-68
2024/04/05 03:17:48;;;;;;;;;;;;;;;20.04;52.75;100674.31;2057252;28;1957;-68
2024/04/05 03:18:48;;;;;;;;;;;;;;;20.02;53.04;100671.34;2059844;28;1919;-69
2024/04/05 03:19:49;;;;;;;;;;;;;;;20.02;52.93;100668.47;2056380;28;2502;-68
2024/04/05 03:20:49;;;;;;;;;;;;;;;20.03;52.83;100678.56;2058477;28;2409;-69
2024/04/05 03:21:49;;;;;;;;;;;;;;;20.02;52.93;100671.34;2058149;28;1856;-68
2024/04/05 03:22:50;;;;;;;;;;;;;;;20.02;53.08;100676.34;2056182;28;1859;-69
2024/04/05 03:23:52;;;;;;;;;;;;;;;20.03;52.96;100672.81;2052345;28;2194;-68
2024/04/05 03:24:52;;;;;;;;;;;;;;;20.01;53.21;100672.72;2063203;28;2072;-69
2024/04/05 03:25:54;;;;;;;;;;;;;;;20.02;53.20;100679.22;2060494;28;1848;-68
2024/04/05 03:26:54;;;;;;;;;;;;;;;20.03;53.05;100672.06;2058738;28;1884;-68
2024/04/05 03:27:54;;;;;;;;;;;;;;;20.02;53.06;100677.09;2065225;28;2086;-68
2024/04/05 03:28:55;;;;;;;;;;;;;;;20.01;53.30;100666.97;2056452;28;2541;-68
2024/04/05 03:29:55;;;;;;;;;;;;;;;20.01;53.27;100675.59;2050173;28;2223;-70
2024/04/05 03:30:55;;;;;;;;;;;;;;;20.02;53.16;100674.22;2064651;28;6597;-70
2024/04/05 03:31:56;;;;;;;;;;;;;;;20.02;53.08;100676.34;2068670;28;1831;-70
2024/04/05 03:32:56;;;;;;;;;;;;;;;20.01;53.25;100684.22;2060163;28;1997;-70
2024/04/05 03:33:57;;;;;;;;;;;;;;;20.01;53.01;100677.72;2072193;28;2136;-70
2024/04/05 03:34:57;;;;;;;;;;;;;;;20.01;53.12;100687.09;2064696;28;1663;-68
2024/04/05 03:36:04;;;;;;;;;;;;;;;20.01;53.03;100680.59;2050603;28;1941;-70
2024/04/05 03:37:04;;;;;;;;;;;;;;;20.00;53.13;100677.00;2054924;28;1795;-70
2024/04/05 03:38:05;;;;;;;;;;;;;;;20.00;53.28;100684.88;2058510;28;2120;-70
2024/04/05 03:39:05;;;;;;;;;;;;;;;20.00;53.09;100696.38;2073605;28;2033;-70
2024/04/05 03:40:06;;;;;;;;;;;;;;;20.00;53.25;100679.88;2067659;28;2153;-70
2024/04/05 03:41:06;;;;;;;;;;;;;;;19.99;53.21;100684.13;2056765;28;2484;-70
2024/04/05 03:42:07;;;;;;;;;;;;;;;20.00;53.25;100685.63;2056691;28;1860;-70
2024/04/05 03:43:07;;;;;;;;;;;;;;;19.99;53.13;100684.13;2051885;28;2030;-70
2024/04/05 03:44:08;;;;;;;;;;;;;;;19.98;53.13;100676.91;2056909;28;2122;-70
2024/04/05 03:45:08;;;;;;;;;;;;;;;19.99;53.07;100687.00;2056927;28;2325;-70
2024/04/05 03:46:09;;;;;;;;;;;;;;;20.00;53.33;100682.00;2054572;28;2255;-70
2024/04/05 03:47:10;;;;;;;;;;;;;;;19.99;53.31;100689.88;2057865;28;1837;-70
2024/04/05 03:48:10;;;;;;;;;;;;;;;19.98;53.34;100682.66;2058249;28;1838;-70
2024/04/05 03:49:11;;;;;;;;;;;;;;;19.98;53.41;100681.91;2056368;28;2052;-70
2024/04/05 03:50:11;;;;;;;;;;;;;;;19.99;53.28;100687.00;2064835;28;2144;-70
2024/04/05 03:51:11;;;;;;;;;;;;;;;19.96;53.25;100673.94;2065467;28;2451;-70
2024/04/05 03:52:12;;;;;;;;;;;;;;;19.98;53.39;100688.41;2049162;28;1861;-70
2024/04/05 03:53:13;;;;;;;;;;;;;;;19.97;53.27;100681.16;2053486;28;1916;-70
2024/04/05 03:54:13;;;;;;;;;;;;;;;19.97;53.39;100678.28;2052358;28;1985;-70
2024/04/05 03:55:13;;;;;;;;;;;;;;;19.98;53.36;100676.91;2050906;28;1873;-70
2024/04/05 03:56:14;;;;;;;;;;;;;;;19.96;53.41;100679.69;2048517;28;1615;-70
2024/04/05 03:57:14;;;;;;;;;;;;;;;19.97;53.36;100689.78;2053328;28;2293;-70
2024/04/05 03:58:15;;;;;;;;;;;;;;;19.97;53.38;100683.28;2061895;28;2177;-70
2024/04/05 03:59:15;;;;;;;;;;;;;;;19.97;53.32;100675.41;2056635;28;2516;-70
2024/04/05 04:00:15;;;;;;;;;;;;;;;19.97;53.37;100680.41;2053081;28;6025;-70
2024/04/05 04:01:16;;;;;;;;;;;;;;;19.98;53.35;100688.41;2060398;28;2585;-70
2024/04/05 04:02:16;;;;;;;;;;;;;;;19.98;53.36;100682.66;2060498;28;3008;-70
2024/04/05 04:03:17;;;;;;;;;;;;;;;19.99;53.31;100681.25;2069644;28;2910;-70
2024/04/05 04:04:17;;;;;;;;;;;;;;;20.00;53.27;100685.63;2072400;28;1940;-70
2024/04/05 04:05:18;;;;;;;;;;;;;;;20.00;53.05;100691.38;2061982;28;2024;-70
2024/04/05 04:06:19;;;;;;;;;;;;;;;20.01;53.20;100689.22;2062793;28;2472;-70
2024/04/05 04:07:19;;;;;;;;;;;;;;;20.00;53.27;100697.13;2059837;28;1862;-70
2024/04/05 04:08:20;;;;;;;;;;;;;;;20.02;52.96;100688.59;2054652;28;2000;-70
2024/04/05 04:09:21;;;;;;;;;;;;;;;20.02;53.06;100700.09;2050391;28;2167;-70
2024/04/05 04:10:24;;;;;;;;;;;;;;;20.02;53.01;100694.34;2055845;28;2537;-70
2024/04/05 04:11:25;;;;;;;;;;;;;;;20.03;53.03;100695.06;2057215;28;2000;-70
2024/04/05 04:12:25;;;;;;;;;;;;;;;20.04;53.05;100693.66;2058231;28;2472;-70
2024/04/05 04:13:26;;;;;;;;;;;;;;;20.05;52.72;100693.03;2055515;28;2556;-70
2024/04/05 04:14:26;;;;;;;;;;;;;;;20.06;53.00;100690.88;2057854;28;1826;-70
2024/04/05 04:15:27;;;;;;;;;;;;;;;20.07;52.91;100696.00;2059334;28;2142;-70
2024/04/05 04:16:27;;;;;;;;;;;;;;;20.06;53.04;100693.75;2050120;28;1633;-70
2024/04/05 04:17:27;;;;;;;;;;;;;;;20.07;52.82;100689.50;2055046;28;1617;-70
2024/04/05 04:18:28;;;;;;;;;;;;;;;20.07;53.03;100690.25;2059012;28;1822;-70
2024/04/05 04:19:28;;;;;;;;;;;;;;;20.06;52.92;100694.50;2057256;28;2170;-69
2024/04/05 04:20:29;;;;;;;;;;;;;;;20.07;52.97;100701.00;2048435;28;1911;-70
2024/04/05 04:21:29;;;;;;;;;;;;;;;20.08;52.87;100702.47;2064619;28;1632;-70
2024/04/05 04:22:29;;;;;;;;;;;;;;;20.06;53.09;100700.25;2066486;28;2613;-68
2024/04/05 04:23:30;;;;;;;;;;;;;;;20.06;52.86;100697.38;2052704;28;2292;-70
2024/04/05 04:24:31;;;;;;;;;;;;;;;20.06;53.04;100700.25;2054174;28;2540;-70
2024/04/05 04:25:31;;;;;;;;;;;;;;;20.06;53.02;100700.25;2052273;28;2520;-70
2024/04/05 04:26:32;;;;;;;;;;;;;;;20.06;52.86;100700.25;2065813;28;2321;-70
2024/04/05 04:27:32;;;;;;;;;;;;;;;20.06;52.78;100708.88;2066676;28;1811;-70
2024/04/05 04:28:32;;;;;;;;;;;;;;;20.07;52.85;100707.50;2050319;28;2477;-70
2024/04/05 04:29:33;;;;;;;;;;;;;;;20.06;52.88;100706.00;2060728;28;1626;-70
2024/04/05 04:30:33;;;;;;;;;;;;;;;20.06;52.99;100700.25;2058291;28;6325;-70
2024/04/05 04:31:34;;;;;;;;;;;;;;;20.05;52.82;100704.53;2053744;28;2423;-71
2024/04/05 04:32:34;;;;;;;;;;;;;;;20.06;52.86;100717.50;2050432;28;1746;-70
2024/04/05 04:33:35;;;;;;;;;;;;;;;20.06;52.92;100711.75;2054044;28;1865;-70
2024/04/05 04:34:35;;;;;;;;;;;;;;;20.06;52.86;100711.75;2060423;28;2072;-70
2024/04/05 04:35:36;;;;;;;;;;;;;;;20.06;53.08;100708.88;2058066;28;2333;-70
2024/04/05 04:36:36;;;;;;;;;;;;;;;20.05;53.16;100706.66;2050203;28;2148;-70
2024/04/05 04:37:36;;;;;;;;;;;;;;;20.05;52.78;100709.53;2057840;28;2552;-70
2024/04/05 04:38:37;;;;;;;;;;;;;;;20.05;52.90;100716.03;2059608;28;2088;-70
2024/04/05 04:39:39;;;;;;;;;;;;;;;20.04;53.03;100705.94;2050448;28;1998;-70
2024/04/05 04:40:40;;;;;;;;;;;;;;;20.05;53.07;100709.53;2057701;28;2458;-70
2024/04/05 04:41:40;;;;;;;;;;;;;;;20.04;53.04;100717.44;2061793;28;1696;-70
2024/04/05 04:42:41;;;;;;;;;;;;;;;20.04;53.27;100720.31;2052360;28;1663;-70
2024/04/05 04:43:42;;;;;;;;;;;;;;;20.05;53.14;100721.78;2059921;28;2687;-70
2024/04/05 04:44:42;;;;;;;;;;;;;;;20.04;53.09;100714.56;2061848;28;2080;-70
2024/04/05 04:45:42;;;;;;;;;;;;;;;20.04;53.25;100720.31;2057204;28;2479;-70
2024/04/05 04:46:44;;;;;;;;;;;;;;;20.04;53.25;100726.06;2047894;28;1932;-70
2024/04/05 04:47:44;;;;;;;;;;;;;;;20.03;53.28;100727.44;2052340;28;2489;-70
2024/04/05 04:48:44;;;;;;;;;;;;;;;20.05;53.27;100726.78;2053095;28;1723;-70
2024/04/05 04:49:45;;;;;;;;;;;;;;;20.05;53.10;100726.78;2048605;28;2485;-70
2024/04/05 04:50:45;;;;;;;;;;;;;;;20.03;53.11;100729.56;2065087;28;2542;-70
2024/04/05 04:51:46;;;;;;;;;;;;;;;20.03;53.11;100723.81;2069162;28;2479;-70
2024/04/05 04:52:46;;;;;;;;;;;;;;;20.04;53.37;100725.28;2061048;28;2246;-70
2024/04/05 04:53:47;;;;;;;;;;;;;;;20.02;53.29;100723.09;2059727;28;2630;-70
2024/04/05 04:54:47;;;;;;;;;;;;;;;20.02;53.27;100723.09;2048051;28;2078;-70
2024/04/05 04:55:47;;;;;;;;;;;;;;;20.03;53.38;100723.81;2057903;28;1653;-70
2024/04/05 04:56:48;;;;;;;;;;;;;;;20.02;53.15;100723.09;2053689;28;1650;-70
2024/04/05 04:57:48;;;;;;;;;;;;;;;20.01;53.28;100721.59;2051816;28;2358;-70
2024/04/05 04:58:50;;;;;;;;;;;;;;;20.02;53.31;100728.06;2053552;28;2148;-70
2024/04/05 04:59:51;;;;;;;;;;;;;;;20.01;53.41;100732.34;2052635;28;2119;-70
2024/04/05 05:00:51;;;;;;;;;;;;;;;19.99;53.58;100723.63;2053538;28;6226;-71
2024/04/05 05:01:51;;;;;;;;;;;;;;;20.06;53.45;100734.75;2057130;28;1657;-70
2024/04/05 05:02:52;;;;;;;;;;;;;;;20.08;53.30;100737.72;2057704;28;2069;-70
2024/04/05 05:03:52;;;;;;;;;;;;;;;20.02;53.50;100740.31;2051936;28;1841;-70
2024/04/05 05:04:53;;;;;;;;;;;;;;;19.78;52.43;100739.19;2055984;28;2350;-70
2024/04/05 05:05:53;;;;;;;;;;;;;;;19.47;52.87;100737.72;2067259;28;2116;-71
2024/04/05 05:06:54;;;;;;;;;;;;;;;19.53;52.96;100755.22;2057214;28;2122;-75
2024/04/05 05:07:54;;;;;;;;;;;;;;;19.69;53.67;100737.31;2044624;28;2456;-78
2024/04/05 05:08:55;;;;;;;;;;;;;;;19.85;53.51;100738.09;2056410;28;3864;-80
2024/04/05 05:09:55;;;;;;;;;;;;;;;19.93;52.45;100731.97;2057650;28;2579;-77
2024/04/05 05:10:55;;;;;;;;;;;;;;;19.96;52.55;100737.16;2050806;28;2600;-80
2024/04/05 05:11:56;;;;;;;;;;;;;;;20.01;52.72;100744.56;2065402;28;2605;-76
2024/04/05 05:12:57;;;;;;;;;;;;;;;20.04;52.56;100751.16;2073495;28;2627;-75
2024/04/05 05:13:57;;;;;;;;;;;;;;;20.01;52.52;100747.44;2059597;28;2728;-76
2024/04/05 05:14:58;;;;;;;;;;;;;;;19.99;52.75;100747.34;2068029;28;2511;-75
2024/04/05 05:15:58;;;;;;;;;;;;;;;20.00;52.83;100748.84;2064663;28;1890;-75